createdAt,value
2022-07-26T00:02:02.931Z,6.57
2022-07-26T00:05:05.833Z,4.40
2022-07-26T00:08:08.639Z,5.28
2022-07-26T00:11:11.531Z,6.22
2022-07-26T00:14:14.225Z,4.65
2022-07-26T00:17:16.867Z,6.22
2022-07-26T00:20:19.385Z,4.93
2022-07-26T00:23:22.300Z,5.57
2022-07-26T00:26:25.076Z,4.47
2022-07-26T00:29:27.796Z,6.75
2022-07-26T00:32:30.046Z,4.65
2022-07-26T00:35:32.201Z,6.00
2022-07-26T00:38:35.284Z,4.43
2022-07-26T00:41:38.636Z,4.78
2022-07-26T00:44:41.987Z,6.28
2022-07-26T00:47:44.777Z,5.10
2022-07-26T00:50:47.494Z,4.07
2022-07-26T00:53:50.094Z,5.00
2022-07-26T00:56:55.217Z,4.03
2022-07-26T00:59:57.882Z,6.05
2022-07-26T01:03:00.295Z,4.47
2022-07-26T01:06:03.238Z,5.10
2022-07-26T01:09:05.990Z,6.00
2022-07-26T01:12:08.173Z,6.15
2022-07-26T01:15:10.842Z,7.18
2022-07-26T01:18:13.832Z,4.28
2022-07-26T01:21:16.833Z,6.47
2022-07-26T01:24:19.741Z,4.65
2022-07-26T01:27:22.680Z,4.40
2022-07-26T01:30:25.147Z,5.57
2022-07-26T01:33:27.974Z,5.82
2022-07-26T01:36:30.396Z,4.40
2022-07-26T01:39:32.591Z,4.78
2022-07-26T01:42:35.484Z,5.75
2022-07-26T01:45:38.049Z,4.38
2022-07-26T01:48:40.729Z,5.18
2022-07-26T01:51:43.433Z,5.45
2022-07-26T01:54:46.138Z,4.00
2022-07-26T01:57:48.895Z,4.43
2022-07-26T02:00:51.612Z,3.83
2022-07-26T02:03:53.882Z,4.18
2022-07-26T02:06:56.620Z,4.75
2022-07-26T02:10:00.238Z,4.32
2022-07-26T02:13:03.708Z,6.40
2022-07-26T02:16:10.472Z,4.10
2022-07-26T02:19:13.184Z,4.53
2022-07-26T02:22:15.807Z,4.75
2022-07-26T02:25:18.012Z,4.22
2022-07-26T02:28:20.221Z,4.55
2022-07-26T02:31:22.426Z,5.65
2022-07-26T02:34:25.152Z,5.38
2022-07-26T02:37:27.774Z,4.22
2022-07-26T02:40:30.975Z,5.18
2022-07-26T02:43:33.940Z,5.25
2022-07-26T02:46:36.817Z,4.85
2022-07-26T02:49:40.137Z,5.32
2022-07-26T02:52:43.548Z,5.63
2022-07-26T02:55:46.548Z,6.97
2022-07-26T02:58:48.776Z,3.50
2022-07-26T03:01:51.356Z,3.88
2022-07-26T03:04:53.818Z,4.72
2022-07-26T03:07:56.510Z,5.80
2022-07-26T03:10:59.158Z,4.40
2022-07-26T03:14:01.994Z,6.35
2022-07-26T03:17:04.412Z,5.53
2022-07-26T03:20:07.458Z,6.65
2022-07-26T03:23:09.944Z,6.10
2022-07-26T03:26:13.194Z,5.03
2022-07-26T03:29:16.779Z,7.13
2022-07-26T03:32:20.419Z,10.90
2022-07-26T03:35:24.610Z,5.88
2022-07-26T03:38:27.986Z,6.65
2022-07-26T03:41:31.234Z,7.13
2022-07-26T03:44:34.116Z,6.70
2022-07-26T03:47:36.510Z,8.48
2022-07-26T03:50:39.771Z,6.90
2022-07-26T03:53:42.329Z,8.25
2022-07-26T03:56:45.197Z,6.97
2022-07-26T03:59:48.184Z,9.43
2022-07-26T04:02:50.821Z,6.53
2022-07-26T04:05:54.021Z,40.70
2022-07-26T04:08:58.915Z,52.15
2022-07-26T04:12:01.893Z,46.47
2022-07-26T04:15:04.148Z,39.30
2022-07-26T04:18:06.322Z,38.80
2022-07-26T04:21:09.157Z,39.35
2022-07-26T04:24:11.823Z,27.88
2022-07-26T04:27:15.005Z,34.90
2022-07-26T04:30:18.260Z,32.10
2022-07-26T04:33:21.239Z,30.60
2022-07-26T04:36:23.902Z,33.10
2022-07-26T04:39:26.665Z,30.40
2022-07-26T04:42:32.034Z,27.63
2022-07-26T04:45:35.617Z,28.95
2022-07-26T04:48:38.446Z,26.55
2022-07-26T04:51:41.535Z,25.88
2022-07-26T04:54:44.047Z,26.35
2022-07-26T04:57:47.584Z,25.42
2022-07-26T05:04:12.577Z,21.30
2022-07-26T05:07:16.023Z,22.35
2022-07-26T05:10:19.174Z,22.52
2022-07-26T05:13:29.439Z,24.23
2022-07-26T05:16:33.799Z,22.30
2022-07-26T05:19:48.867Z,20.73
2022-07-26T05:22:52.645Z,22.17
2022-07-26T05:25:55.673Z,26.15
2022-07-26T05:28:58.130Z,26.00
2022-07-26T05:32:00.402Z,27.77
2022-07-26T05:35:03.588Z,24.45
2022-07-26T05:38:06.627Z,26.05
2022-07-26T05:41:09.148Z,25.90
2022-07-26T05:44:12.462Z,26.02
2022-07-26T05:47:15.489Z,25.88
2022-07-26T05:50:18.022Z,26.65
2022-07-26T05:53:21.600Z,28.95
2022-07-26T05:56:24.484Z,23.92
2022-07-26T05:59:27.681Z,23.85
2022-07-26T06:02:30.547Z,25.70
2022-07-26T06:05:32.909Z,24.45
2022-07-26T06:08:35.304Z,27.25
2022-07-26T06:11:38.715Z,22.48
2022-07-26T06:14:41.760Z,21.98
2022-07-26T06:17:45.268Z,22.80
2022-07-26T06:20:47.983Z,25.38
2022-07-26T06:23:50.210Z,24.85
2022-07-26T06:26:56.762Z,26.83
2022-07-26T06:29:59.485Z,21.60
2022-07-26T06:33:02.229Z,20.80
2022-07-26T06:36:04.436Z,21.88
2022-07-26T06:39:07.611Z,25.65
2022-07-26T06:42:10.785Z,20.02
2022-07-26T06:45:15.996Z,17.75
2022-07-26T06:48:19.384Z,18.52
2022-07-26T06:51:23.819Z,19.10
2022-07-26T06:54:26.863Z,20.30
2022-07-26T06:57:29.710Z,18.52
2022-07-26T07:00:32.343Z,14.82
2022-07-26T07:03:35.840Z,17.13
2022-07-26T07:06:38.957Z,21.33
2022-07-26T07:09:41.973Z,17.20
2022-07-26T07:12:45.021Z,15.38
2022-07-26T07:15:47.371Z,13.73
2022-07-26T07:18:50.375Z,17.38
2022-07-26T07:21:53.776Z,13.52
2022-07-26T07:24:56.615Z,14.15
2022-07-26T07:27:59.191Z,12.20
2022-07-26T07:31:01.697Z,15.30
2022-07-26T07:34:06.426Z,13.50
2022-07-26T07:37:08.859Z,15.20
2022-07-26T07:40:14.006Z,13.80
2022-07-26T07:43:16.930Z,11.20
2022-07-26T07:46:20.104Z,12.75
2022-07-26T07:49:22.657Z,11.35
2022-07-26T07:52:25.396Z,14.13
2022-07-26T07:55:46.076Z,11.38
2022-07-26T07:58:49.107Z,15.32
2022-07-26T08:01:55.427Z,18.77
2022-07-26T08:05:01.707Z,15.68
2022-07-26T08:08:16.920Z,19.92
2022-07-26T08:11:19.610Z,15.13
2022-07-26T08:14:22.549Z,18.23
2022-07-26T08:17:25.065Z,24.30
2022-07-26T08:20:29.256Z,31.52
2022-07-26T08:23:33.140Z,24.23
2022-07-26T08:26:36.285Z,27.52
2022-07-26T08:29:39.545Z,21.85
2022-07-26T08:32:42.561Z,24.33
2022-07-26T08:35:45.245Z,24.58
2022-07-26T08:38:48.526Z,21.38
2022-07-26T08:41:51.929Z,22.52
2022-07-26T08:44:54.381Z,19.52
2022-07-26T08:48:16.600Z,26.42
2022-07-26T08:51:19.622Z,18.58
2022-07-26T08:54:21.866Z,19.95
2022-07-26T08:57:24.498Z,18.42
2022-07-26T09:00:27.453Z,16.17
2022-07-26T09:03:30.672Z,17.75
2022-07-26T09:06:33.121Z,18.45
2022-07-26T09:09:35.728Z,17.60
2022-07-26T09:12:38.783Z,16.48
2022-07-26T09:15:41.694Z,12.82
2022-07-26T09:18:45.845Z,15.10
2022-07-26T09:21:48.610Z,14.32
2022-07-26T09:24:51.140Z,14.02
2022-07-26T09:27:53.922Z,11.48
2022-07-26T09:30:56.774Z,12.25
2022-07-26T09:33:59.579Z,11.05
2022-07-26T09:37:02.233Z,13.27
2022-07-26T09:40:04.834Z,10.98
2022-07-26T09:43:07.442Z,10.55
2022-07-26T09:46:12.041Z,8.07
2022-07-26T09:49:15.207Z,9.27
2022-07-26T09:52:18.211Z,13.95
2022-07-26T09:55:21.298Z,12.85
2022-07-26T09:58:24.280Z,8.27
2022-07-26T10:01:26.486Z,7.85
2022-07-26T10:04:29.241Z,8.27
2022-07-26T10:07:31.849Z,12.52
2022-07-26T10:10:34.967Z,8.90
2022-07-26T10:13:38.590Z,5.75
2022-07-26T10:16:41.199Z,9.15
2022-07-26T10:19:45.750Z,9.52
2022-07-26T10:22:50.282Z,12.88
2022-07-26T10:25:53.360Z,9.73
2022-07-26T10:28:57.461Z,11.82
2022-07-26T10:32:01.160Z,9.70
2022-07-26T10:35:04.884Z,8.95
2022-07-26T10:38:08.649Z,8.65
2022-07-26T10:41:12.294Z,8.65
2022-07-26T10:44:15.709Z,7.32
2022-07-26T10:47:19.594Z,9.10
2022-07-26T10:50:22.372Z,9.02
2022-07-26T10:53:24.527Z,20.13
2022-07-26T10:56:32.626Z,31.77
2022-07-26T11:00:02.101Z,40.72
2022-07-26T11:02:58.825Z,47.25
2022-07-26T11:06:02.355Z,65.18
2022-07-26T11:09:05.140Z,75.78
2022-07-26T11:12:07.637Z,76.57
2022-07-26T11:15:10.601Z,90.82
2022-07-26T11:18:12.904Z,77.88
2022-07-26T11:21:15.696Z,77.88
2022-07-26T11:24:17.891Z,67.05
2022-07-26T11:27:20.165Z,66.55
2022-07-26T11:30:22.800Z,72.15
2022-07-26T11:33:26.153Z,65.80
2022-07-26T11:36:28.886Z,59.42
2022-07-26T11:39:32.525Z,64.72
2022-07-26T11:42:35.581Z,59.03
2022-07-26T11:45:38.252Z,59.65
2022-07-26T11:48:41.306Z,56.13
2022-07-26T11:51:44.308Z,54.25
2022-07-26T11:54:47.186Z,50.17
2022-07-26T11:57:49.818Z,51.58
2022-07-26T12:00:52.841Z,50.60
2022-07-26T12:03:55.961Z,45.65
2022-07-26T12:06:58.469Z,43.70
2022-07-26T12:10:01.277Z,21.40
2022-07-26T12:13:03.836Z,14.02
2022-07-26T12:16:06.798Z,6.55
2022-07-26T12:19:09.393Z,4.38
2022-07-26T12:22:13.180Z,4.03
2022-07-26T12:25:16.226Z,4.07
2022-07-26T12:28:18.548Z,2.63
2022-07-26T12:31:21.688Z,3.33
2022-07-26T12:34:25.269Z,3.60
2022-07-26T12:37:39.496Z,2.67
2022-07-26T12:40:43.421Z,3.58
2022-07-26T12:43:49.225Z,5.22
2022-07-26T12:46:52.521Z,4.20
2022-07-26T12:49:55.874Z,3.80
2022-07-26T12:52:59.275Z,3.92
2022-07-26T12:56:02.355Z,8.23
2022-07-26T12:59:05.124Z,4.78
2022-07-26T13:02:07.455Z,5.45
2022-07-26T13:05:11.186Z,6.00
2022-07-26T13:08:14.418Z,5.13
2022-07-26T13:11:17.816Z,5.97
2022-07-26T13:14:20.037Z,4.78
2022-07-26T13:17:23.208Z,5.90
2022-07-26T13:20:27.238Z,6.15
2022-07-26T13:23:31.276Z,3.85
2022-07-26T13:26:38.700Z,5.60
2022-07-26T13:29:42.045Z,6.75
2022-07-26T13:32:44.843Z,5.55
2022-07-26T13:35:50.178Z,6.22
2022-07-26T13:38:53.430Z,5.63
2022-07-26T13:41:55.977Z,5.07
2022-07-26T13:44:59.385Z,8.32
2022-07-26T13:48:02.460Z,4.28
2022-07-26T13:51:04.771Z,6.75
2022-07-26T13:54:08.062Z,7.07
2022-07-26T13:57:11.020Z,4.70
2022-07-26T14:00:13.417Z,7.40
2022-07-26T14:03:16.862Z,5.25
2022-07-26T14:06:20.539Z,6.32
2022-07-26T14:09:22.864Z,6.03
2022-07-26T14:12:25.968Z,5.35
2022-07-26T14:15:28.695Z,4.43
2022-07-26T14:18:32.579Z,6.53
2022-07-26T14:21:38.616Z,7.85
2022-07-26T14:24:50.175Z,9.88
2022-07-26T14:27:53.518Z,7.47
2022-07-26T14:30:57.153Z,4.85
2022-07-26T14:34:00.552Z,4.72
2022-07-26T14:37:08.372Z,5.30
2022-07-26T14:40:25.836Z,4.38
2022-07-26T14:43:28.767Z,6.95
2022-07-26T14:46:31.350Z,5.50
2022-07-26T14:49:33.585Z,3.38
2022-07-26T14:52:35.803Z,5.72
2022-07-26T14:55:38.197Z,3.17
2022-07-26T14:58:41.007Z,3.58
2022-07-26T15:01:44.034Z,4.15
2022-07-26T15:04:47.254Z,6.60
2022-07-26T15:07:49.915Z,6.03
2022-07-26T15:10:53.244Z,5.43
2022-07-26T15:13:56.243Z,6.75
2022-07-26T15:16:58.974Z,4.10
2022-07-26T15:20:01.578Z,4.40
2022-07-26T15:23:04.024Z,6.18
2022-07-26T15:26:06.761Z,3.10
2022-07-26T15:29:10.331Z,5.18
2022-07-26T15:32:13.349Z,4.28
2022-07-26T15:35:15.616Z,5.65
2022-07-26T15:38:18.359Z,4.20
2022-07-26T15:41:21.408Z,3.08
2022-07-26T15:44:25.569Z,3.58
2022-07-26T15:47:53.012Z,2.95
2022-07-26T15:50:51.780Z,3.92
2022-07-26T15:53:54.877Z,4.75
2022-07-26T15:56:58.320Z,4.72
2022-07-26T16:00:11.261Z,3.15
2022-07-26T16:03:14.795Z,4.13
2022-07-26T16:06:17.790Z,5.22
2022-07-26T16:09:20.972Z,7.13
2022-07-26T16:12:24.666Z,4.03
2022-07-26T16:15:27.688Z,3.92
2022-07-26T16:18:30.852Z,3.40
2022-07-26T16:21:34.279Z,3.65
2022-07-26T16:24:36.909Z,3.70
2022-07-26T16:27:39.438Z,4.72
2022-07-26T16:30:41.660Z,4.45
2022-07-26T16:33:46.528Z,5.38
2022-07-26T16:36:49.445Z,3.75
2022-07-26T16:39:51.882Z,2.58
2022-07-26T16:42:55.175Z,2.53
2022-07-26T16:45:58.089Z,2.58
2022-07-26T16:49:00.836Z,3.25
2022-07-26T16:52:03.523Z,3.33
2022-07-26T16:55:06.630Z,4.93
2022-07-26T16:58:09.863Z,3.15
2022-07-26T17:01:13.289Z,3.05
2022-07-26T17:04:15.835Z,3.92
2022-07-26T17:07:26.523Z,4.68
2022-07-26T17:10:29.152Z,4.05
2022-07-26T17:13:31.355Z,5.15
2022-07-26T17:16:34.464Z,3.80
2022-07-26T17:19:37.451Z,3.85
2022-07-26T17:22:40.194Z,3.63
2022-07-26T17:25:43.397Z,3.40
2022-07-26T17:28:46.614Z,4.68
2022-07-26T17:31:49.182Z,4.05
2022-07-26T17:34:51.972Z,3.17
2022-07-26T17:37:54.506Z,3.55
2022-07-26T17:40:58.733Z,2.47
2022-07-26T17:44:02.519Z,3.45
2022-07-26T17:47:27.768Z,4.20
2022-07-26T17:50:37.298Z,3.25
2022-07-26T17:53:40.906Z,3.42
2022-07-26T17:56:44.027Z,4.53
2022-07-26T17:59:47.501Z,3.67
2022-07-26T18:02:50.603Z,4.50
2022-07-26T18:05:53.381Z,3.38
2022-07-26T18:08:56.056Z,3.40
2022-07-26T18:11:58.763Z,4.22
2022-07-26T18:15:01.479Z,5.15
2022-07-26T18:18:04.477Z,4.93
2022-07-26T18:21:09.052Z,4.47
2022-07-26T18:24:17.318Z,4.57
2022-07-26T18:27:21.434Z,4.05
2022-07-26T18:30:24.316Z,5.32
2022-07-26T18:33:26.598Z,5.63
2022-07-26T18:36:29.298Z,3.90
2022-07-26T18:39:33.224Z,4.43
2022-07-26T18:42:36.052Z,2.60
2022-07-26T18:45:38.738Z,4.07
2022-07-26T18:48:42.035Z,3.30
2022-07-26T18:51:45.624Z,3.67
2022-07-26T18:54:51.756Z,2.60
2022-07-26T18:57:54.953Z,3.42
2022-07-26T19:00:58.182Z,4.90
2022-07-26T19:04:06.544Z,2.50
2022-07-26T19:07:09.692Z,2.40
2022-07-26T19:10:12.461Z,4.60
2022-07-26T19:13:15.521Z,5.50
2022-07-26T19:16:18.465Z,2.83
2022-07-26T19:19:22.411Z,2.83
2022-07-26T19:22:25.719Z,8.75
2022-07-26T19:25:28.789Z,4.07
2022-07-26T19:28:31.916Z,11.30
2022-07-26T19:31:35.490Z,5.35
2022-07-26T19:34:39.791Z,3.55
2022-07-26T19:37:42.870Z,5.28
2022-07-26T19:40:45.834Z,5.93
2022-07-26T19:43:49.223Z,7.13
2022-07-26T19:46:57.002Z,4.13
2022-07-26T19:50:00.445Z,6.05
2022-07-26T19:53:03.300Z,5.30
2022-07-26T19:56:07.789Z,4.30
2022-07-26T19:59:11.569Z,3.30
2022-07-26T20:02:14.582Z,4.40
2022-07-26T20:05:17.529Z,5.68
2022-07-26T20:08:20.296Z,6.00
2022-07-26T20:11:22.860Z,10.23
2022-07-26T20:14:26.006Z,4.82
2022-07-26T20:17:29.608Z,6.57
2022-07-26T20:20:32.948Z,6.43
2022-07-26T20:23:36.491Z,5.97
2022-07-26T20:26:39.337Z,4.10
2022-07-26T20:29:42.264Z,4.60
2022-07-26T20:32:46.038Z,5.20
2022-07-26T20:35:54.523Z,4.32
2022-07-26T20:38:57.824Z,7.95
2022-07-26T20:42:00.913Z,3.78
2022-07-26T20:45:04.456Z,5.43
2022-07-26T20:48:07.574Z,4.72
2022-07-26T20:51:13.241Z,4.22
2022-07-26T20:54:16.329Z,2.97
2022-07-26T20:57:19.035Z,4.28
2022-07-26T21:00:22.159Z,3.00
2022-07-26T21:03:25.441Z,3.83
2022-07-26T21:06:29.191Z,3.70
2022-07-26T21:09:32.008Z,4.50
2022-07-26T21:12:34.558Z,2.40
2022-07-26T21:15:37.493Z,4.65
2022-07-26T21:18:39.770Z,3.08
2022-07-26T21:21:42.076Z,4.72
2022-07-26T21:24:45.188Z,4.85
2022-07-26T21:27:49.438Z,2.83
2022-07-26T21:30:52.117Z,4.43
2022-07-26T21:33:54.828Z,4.00
2022-07-26T21:36:57.672Z,3.10
2022-07-26T21:40:01.138Z,4.00
2022-07-26T21:43:05.100Z,2.20
2022-07-26T21:46:12.416Z,4.05
2022-07-26T21:49:16.682Z,1.80
2022-07-26T21:52:19.564Z,2.53
2022-07-26T21:55:22.329Z,2.20
2022-07-26T21:58:27.845Z,2.03
2022-07-26T22:01:30.772Z,3.03
2022-07-26T22:04:34.491Z,1.52
2022-07-26T22:07:37.013Z,2.15
2022-07-26T22:10:44.309Z,3.28
2022-07-26T22:13:47.392Z,2.42
2022-07-26T22:16:50.723Z,1.70
2022-07-26T22:19:53.435Z,2.58
2022-07-26T22:22:56.374Z,4.25
2022-07-26T22:25:59.529Z,4.72
2022-07-26T22:29:02.501Z,2.03
2022-07-26T22:32:05.984Z,1.52
2022-07-26T22:35:08.957Z,2.00
2022-07-26T22:38:11.884Z,2.08
2022-07-26T22:41:14.750Z,2.00
2022-07-26T22:44:17.921Z,2.38
2022-07-26T22:47:21.670Z,2.40
2022-07-26T22:50:24.625Z,2.22
2022-07-26T22:53:28.253Z,2.65
2022-07-26T22:56:30.719Z,2.95
2022-07-26T22:59:33.452Z,1.77
2022-07-26T23:02:36.385Z,1.67
2022-07-26T23:05:46.370Z,2.92
2022-07-26T23:08:50.695Z,2.58
2022-07-26T23:11:54.282Z,2.50
2022-07-26T23:14:57.819Z,1.60
2022-07-26T23:18:00.989Z,2.35
2022-07-26T23:21:04.495Z,1.35
2022-07-26T23:24:07.757Z,2.17
2022-07-26T23:27:10.544Z,3.05
2022-07-26T23:30:13.616Z,4.22
2022-07-26T23:33:16.415Z,2.38
2022-07-26T23:36:25.700Z,4.93
2022-07-26T23:39:28.151Z,3.65
2022-07-26T23:42:30.957Z,3.55
2022-07-26T23:45:33.920Z,3.35
2022-07-26T23:48:37.025Z,3.20
2022-07-26T23:51:40.351Z,2.33
2022-07-26T23:54:43.537Z,2.70
2022-07-26T23:57:46.997Z,3.47
